sensor_id;sensor_type;location;lat;lon;timestamp;pressure;altitude;pressure_sealevel;temperature;humidity
19831;BME280;10076;52.008;4.708;2023-02-17T00:01:42;101974.41;;;11.38;100.00
19831;BME280;10076;52.008;4.708;2023-02-17T00:04:08;101972.00;;;11.34;100.00
19831;BME280;10076;52.008;4.708;2023-02-17T00:06:33;101974.75;;;11.32;100.00
19831;BME280;10076;52.008;4.708;2023-02-17T00:08:58;101975.69;;;11.31;100.00
19831;BME280;10076;52.008;4.708;2023-02-17T00:11:24;101969.34;;;11.18;100.00
19831;BME280;10076;52.008;4.708;2023-02-17T00:13:50;101976.19;;;11.22;100.00
19831;BME280;10076;52.008;4.708;2023-02-17T00:16:18;101972.88;;;11.19;100.00
19831;BME280;10076;52.008;4.708;2023-02-17T00:18:44;101973.03;;;11.16;100.00
19831;BME280;10076;52.008;4.708;2023-02-17T00:21:15;101976.53;;;11.16;100.00
19831;BME280;10076;52.008;4.708;2023-02-17T00:23:42;101972.84;;;11.03;100.00
19831;BME280;10076;52.008;4.708;2023-02-17T00:26:07;101980.94;;;11.00;100.00
19831;BME280;10076;52.008;4.708;2023-02-17T00:28:33;101990.22;;;10.92;100.00
19831;BME280;10076;52.008;4.708;2023-02-17T00:30:59;101989.13;;;10.96;100.00
19831;BME280;10076;52.008;4.708;2023-02-17T00:33:24;101984.50;;;10.84;100.00
19831;BME280;10076;52.008;4.708;2023-02-17T00:35:49;101977.38;;;10.69;100.00
19831;BME280;10076;52.008;4.708;2023-02-17T00:38:15;101971.44;;;10.81;100.00
19831;BME280;10076;52.008;4.708;2023-02-17T00:40:40;101963.47;;;10.66;100.00
19831;BME280;10076;52.008;4.708;2023-02-17T00:43:06;101968.69;;;10.67;100.00
19831;BME280;10076;52.008;4.708;2023-02-17T00:45:32;101969.72;;;10.65;100.00
19831;BME280;10076;52.008;4.708;2023-02-17T00:47:57;101962.34;;;10.54;100.00
19831;BME280;10076;52.008;4.708;2023-02-17T00:50:22;101963.97;;;10.57;100.00
19831;BME280;10076;52.008;4.708;2023-02-17T00:52:47;101961.38;;;10.72;100.00
19831;BME280;10076;52.008;4.708;2023-02-17T00:55:13;101977.38;;;10.69;100.00
19831;BME280;10076;52.008;4.708;2023-02-17T00:57:38;101964.81;;;10.57;100.00
19831;BME280;10076;52.008;4.708;2023-02-17T01:00:04;101963.66;;;10.63;100.00
19831;BME280;10076;52.008;4.708;2023-02-17T01:02:30;101967.41;;;10.59;100.00
19831;BME280;10076;52.008;4.708;2023-02-17T01:04:55;101963.41;;;10.67;100.00
19831;BME280;10076;52.008;4.708;2023-02-17T01:07:20;101971.63;;;10.78;100.00
19831;BME280;10076;52.008;4.708;2023-02-17T01:09:46;101962.16;;;10.74;100.00
19831;BME280;10076;52.008;4.708;2023-02-17T01:12:12;101954.78;;;10.64;100.00
19831;BME280;10076;52.008;4.708;2023-02-17T01:14:37;101977.22;;;10.72;100.00
19831;BME280;10076;52.008;4.708;2023-02-17T01:17:02;101972.25;;;10.66;100.00
19831;BME280;10076;52.008;4.708;2023-02-17T01:19:28;101988.47;;;10.76;100.00
19831;BME280;10076;52.008;4.708;2023-02-17T01:21:53;101984.59;;;10.66;100.00
19831;BME280;10076;52.008;4.708;2023-02-17T01:24:18;101986.84;;;10.73;100.00
19831;BME280;10076;52.008;4.708;2023-02-17T01:26:44;101983.66;;;10.67;100.00
19831;BME280;10076;52.008;4.708;2023-02-17T01:29:09;101975.22;;;10.60;100.00
19831;BME280;10076;52.008;4.708;2023-02-17T01:31:35;101967.13;;;10.63;100.00
19831;BME280;10076;52.008;4.708;2023-02-17T01:34:02;101954.63;;;10.67;100.00
19831;BME280;10076;52.008;4.708;2023-02-17T01:36:28;101952.94;;;10.49;100.00
19831;BME280;10076;52.008;4.708;2023-02-17T01:38:54;101949.78;;;10.42;100.00
19831;BME280;10076;52.008;4.708;2023-02-17T01:41:23;101950.06;;;10.53;100.00
19831;BME280;10076;52.008;4.708;2023-02-17T01:44:04;101944.97;;;10.50;100.00
19831;BME280;10076;52.008;4.708;2023-02-17T01:46:33;101937.22;;;10.63;100.00
19831;BME280;10076;52.008;4.708;2023-02-17T01:48:59;101946.78;;;10.65;100.00
19831;BME280;10076;52.008;4.708;2023-02-17T01:51:28;101945.06;;;10.64;100.00
19831;BME280;10076;52.008;4.708;2023-02-17T01:54:00;101943.34;;;10.63;100.00
19831;BME280;10076;52.008;4.708;2023-02-17T01:56:28;101943.34;;;10.63;100.00
19831;BME280;10076;52.008;4.708;2023-02-17T01:59:00;101951.13;;;10.66;100.00
19831;BME280;10076;52.008;4.708;2023-02-17T02:01:27;101949.94;;;10.72;100.00
19831;BME280;10076;52.008;4.708;2023-02-17T02:03:53;101941.03;;;10.74;100.00
19831;BME280;10076;52.008;4.708;2023-02-17T02:06:24;101928.28;;;10.65;100.00
19831;BME280;10076;52.008;4.708;2023-02-17T02:09:08;101932.97;;;10.60;100.00
19831;BME280;10076;52.008;4.708;2023-02-17T02:11:35;101920.59;;;10.45;100.00
19831;BME280;10076;52.008;4.708;2023-02-17T02:14:01;101909.75;;;10.50;100.00
19831;BME280;10076;52.008;4.708;2023-02-17T02:16:36;101913.97;;;10.54;100.00
19831;BME280;10076;52.008;4.708;2023-02-17T02:24:58;101908.00;;;10.50;100.00
19831;BME280;10076;52.008;4.708;2023-02-17T02:27:39;101903.06;;;10.60;100.00
19831;BME280;10076;52.008;4.708;2023-02-17T02:32:56;101888.41;;;10.54;100.00
19831;BME280;10076;52.008;4.708;2023-02-17T02:35:35;101899.06;;;10.53;100.00
19831;BME280;10076;52.008;4.708;2023-02-17T02:40:35;101885.91;;;10.51;100.00
19831;BME280;10076;52.008;4.708;2023-02-17T02:43:04;101887.47;;;10.55;100.00
19831;BME280;10076;52.008;4.708;2023-02-17T02:45:29;101891.03;;;10.54;100.00
19831;BME280;10076;52.008;4.708;2023-02-17T02:47:56;101887.56;;;10.54;100.00
19831;BME280;10076;52.008;4.708;2023-02-17T03:06:47;101882.84;;;10.43;100.00
19831;BME280;10076;52.008;4.708;2023-02-17T03:09:24;101871.00;;;10.35;100.00
19831;BME280;10076;52.008;4.708;2023-02-17T03:11:50;101864.50;;;10.40;100.00
19831;BME280;10076;52.008;4.708;2023-02-17T03:14:19;101857.38;;;10.42;100.00
19831;BME280;10076;52.008;4.708;2023-02-17T03:16:44;101850.22;;;10.44;100.00
19831;BME280;10076;52.008;4.708;2023-02-17T03:19:11;101847.84;;;10.55;100.00
19831;BME280;10076;52.008;4.708;2023-02-17T03:21:41;101837.97;;;10.43;100.00
19831;BME280;10076;52.008;4.708;2023-02-17T03:24:08;101833.72;;;10.56;100.00
19831;BME280;10076;52.008;4.708;2023-02-17T03:26:33;101835.72;;;10.51;100.00
19831;BME280;10076;52.008;4.708;2023-02-17T03:28:59;101833.38;;;10.62;100.00
19831;BME280;10076;52.008;4.708;2023-02-17T03:31:24;101849.06;;;10.65;100.00
19831;BME280;10076;52.008;4.708;2023-02-17T03:33:50;101845.47;;;10.66;100.00
19831;BME280;10076;52.008;4.708;2023-02-17T03:36:15;101839.31;;;10.66;100.00
19831;BME280;10076;52.008;4.708;2023-02-17T03:38:41;101846.91;;;10.72;100.00
19831;BME280;10076;52.008;4.708;2023-02-17T03:41:06;101836.28;;;10.73;100.00
19831;BME280;10076;52.008;4.708;2023-02-17T03:43:31;101835.69;;;10.68;100.00
19831;BME280;10076;52.008;4.708;2023-02-17T03:45:57;101851.19;;;10.74;100.00
19831;BME280;10076;52.008;4.708;2023-02-17T03:48:22;101858.16;;;10.75;100.00
19831;BME280;10076;52.008;4.708;2023-02-17T03:50:48;101860.41;;;10.83;100.00
19831;BME280;10076;52.008;4.708;2023-02-17T03:53:13;101855.63;;;10.89;100.00
19831;BME280;10076;52.008;4.708;2023-02-17T03:55:38;101854.16;;;10.99;100.00
19831;BME280;10076;52.008;4.708;2023-02-17T03:58:04;101842.91;;;10.96;100.00
19831;BME280;10076;52.008;4.708;2023-02-17T04:00:29;101855.88;;;11.00;100.00
19831;BME280;10076;52.008;4.708;2023-02-17T04:02:55;101852.75;;;10.94;100.00
19831;BME280;10076;52.008;4.708;2023-02-17T04:05:21;101849.06;;;10.96;100.00
19831;BME280;10076;52.008;4.708;2023-02-17T04:07:47;101841.28;;;10.93;100.00
19831;BME280;10076;52.008;4.708;2023-02-17T04:10:12;101848.38;;;11.08;100.00
19831;BME280;10076;52.008;4.708;2023-02-17T04:12:38;101866.78;;;11.09;100.00
19831;BME280;10076;52.008;4.708;2023-02-17T04:15:04;101867.28;;;11.16;100.00
19831;BME280;10076;52.008;4.708;2023-02-17T04:17:29;101859.69;;;11.10;100.00
19831;BME280;10076;52.008;4.708;2023-02-17T04:19:54;101864.41;;;11.05;100.00
19831;BME280;10076;52.008;4.708;2023-02-17T04:22:20;101850.75;;;11.12;100.00
19831;BME280;10076;52.008;4.708;2023-02-17T04:24:45;101857.41;;;11.04;100.00
19831;BME280;10076;52.008;4.708;2023-02-17T04:27:10;101856.66;;;11.02;100.00
19831;BME280;10076;52.008;4.708;2023-02-17T04:29:35;101837.47;;;11.14;100.00
19831;BME280;10076;52.008;4.708;2023-02-17T04:32:01;101849.38;;;11.21;100.00
19831;BME280;10076;52.008;4.708;2023-02-17T04:34:26;101852.13;;;11.04;100.00
19831;BME280;10076;52.008;4.708;2023-02-17T04:36:51;101845.28;;;11.15;100.00
19831;BME280;10076;52.008;4.708;2023-02-17T04:39:17;101837.09;;;11.20;100.00
19831;BME280;10076;52.008;4.708;2023-02-17T04:41:42;101832.75;;;11.19;100.00
19831;BME280;10076;52.008;4.708;2023-02-17T04:44:08;101826.53;;;11.20;100.00
19831;BME280;10076;52.008;4.708;2023-02-17T04:46:33;101832.31;;;11.26;100.00
19831;BME280;10076;52.008;4.708;2023-02-17T04:48:58;101819.88;;;11.28;100.00
19831;BME280;10076;52.008;4.708;2023-02-17T04:51:24;101831.97;;;11.32;100.00
19831;BME280;10076;52.008;4.708;2023-02-17T04:53:50;101835.06;;;11.25;100.00
19831;BME280;10076;52.008;4.708;2023-02-17T04:56:15;101839.34;;;11.41;100.00
19831;BME280;10076;52.008;4.708;2023-02-17T04:58:40;101848.66;;;11.33;100.00
19831;BME280;10076;52.008;4.708;2023-02-17T05:01:06;101850.63;;;11.29;100.00
19831;BME280;10076;52.008;4.708;2023-02-17T05:03:31;101857.28;;;11.21;100.00
19831;BME280;10076;52.008;4.708;2023-02-17T05:05:57;101854.91;;;11.32;100.00
19831;BME280;10076;52.008;4.708;2023-02-17T05:08:22;101855.66;;;11.34;100.00
19831;BME280;10076;52.008;4.708;2023-02-17T05:10:49;101853.94;;;11.33;100.00
19831;BME280;10076;52.008;4.708;2023-02-17T05:13:15;101852.91;;;11.35;100.00
19831;BME280;10076;52.008;4.708;2023-02-17T05:15:42;101859.91;;;11.36;100.00
19831;BME280;10076;52.008;4.708;2023-02-17T05:18:07;101847.72;;;11.34;100.00
19831;BME280;10076;52.008;4.708;2023-02-17T05:20:33;101857.91;;;11.26;100.00
19831;BME280;10076;52.008;4.708;2023-02-17T05:22:58;101846.63;;;11.38;100.00
19831;BME280;10076;52.008;4.708;2023-02-17T05:25:24;101843.03;;;11.39;100.00
19831;BME280;10076;52.008;4.708;2023-02-17T05:27:49;101847.47;;;11.38;100.00
19831;BME280;10076;52.008;4.708;2023-02-17T05:30:15;101839.44;;;11.40;100.00
19831;BME280;10076;52.008;4.708;2023-02-17T05:32:40;101827.34;;;11.36;100.00
19831;BME280;10076;52.008;4.708;2023-02-17T05:35:06;101836.06;;;11.38;100.00
19831;BME280;10076;52.008;4.708;2023-02-17T05:37:31;101840.22;;;11.42;100.00
19831;BME280;10076;52.008;4.708;2023-02-17T05:39:57;101835.03;;;11.40;100.00
19831;BME280;10076;52.008;4.708;2023-02-17T05:42:22;101829.13;;;11.51;100.00
19831;BME280;10076;52.008;4.708;2023-02-17T05:44:47;101828.34;;;11.49;100.00
19831;BME280;10076;52.008;4.708;2023-02-17T05:47:13;101829.63;;;11.42;100.00
19831;BME280;10076;52.008;4.708;2023-02-17T05:49:38;101823.22;;;11.46;100.00
19831;BME280;10076;52.008;4.708;2023-02-17T05:52:03;101823.75;;;11.37;100.00
19831;BME280;10076;52.008;4.708;2023-02-17T05:54:29;101816.75;;;11.51;100.00
19831;BME280;10076;52.008;4.708;2023-02-17T05:56:54;101819.44;;;11.50;100.00
19831;BME280;10076;52.008;4.708;2023-02-17T05:59:19;101810.94;;;11.45;100.00
19831;BME280;10076;52.008;4.708;2023-02-17T06:01:45;101814.69;;;11.41;100.00
19831;BME280;10076;52.008;4.708;2023-02-17T06:04:10;101807.34;;;11.46;100.00
19831;BME280;10076;52.008;4.708;2023-02-17T06:06:35;101819.53;;;11.48;100.00
19831;BME280;10076;52.008;4.708;2023-02-17T06:09:01;101810.94;;;11.45;100.00
19831;BME280;10076;52.008;4.708;2023-02-17T06:11:26;101819.63;;;11.47;100.00
19831;BME280;10076;52.008;4.708;2023-02-17T06:13:51;101824.00;;;11.48;100.00
19831;BME280;10076;52.008;4.708;2023-02-17T06:16:17;101827.38;;;11.50;100.00
19831;BME280;10076;52.008;4.708;2023-02-17T06:18:42;101809.91;;;11.47;100.00
19831;BME280;10076;52.008;4.708;2023-02-17T06:21:07;101809.25;;;11.44;100.00
19831;BME280;10076;52.008;4.708;2023-02-17T06:23:33;101794.56;;;11.54;100.00
19831;BME280;10076;52.008;4.708;2023-02-17T06:25:58;101800.78;;;11.53;100.00
19831;BME280;10076;52.008;4.708;2023-02-17T06:28:23;101804.13;;;11.56;100.00
19831;BME280;10076;52.008;4.708;2023-02-17T06:30:48;101805.47;;;11.63;100.00
19831;BME280;10076;52.008;4.708;2023-02-17T06:33:14;101800.03;;;11.51;100.00
19831;BME280;10076;52.008;4.708;2023-02-17T06:35:39;101791.31;;;11.49;100.00
19831;BME280;10076;52.008;4.708;2023-02-17T06:38:04;101795.00;;;11.46;100.00
19831;BME280;10076;52.008;4.708;2023-02-17T06:40:30;101801.63;;;11.53;100.00
19831;BME280;10076;52.008;4.708;2023-02-17T06:42:55;101795.81;;;11.62;100.00
19831;BME280;10076;52.008;4.708;2023-02-17T06:45:20;101788.91;;;11.60;100.00
19831;BME280;10076;52.008;4.708;2023-02-17T06:47:46;101772.38;;;11.56;100.00
19831;BME280;10076;52.008;4.708;2023-02-17T06:50:11;101769.47;;;11.74;100.00
19831;BME280;10076;52.008;4.708;2023-02-17T06:52:37;101779.16;;;11.60;100.00
19831;BME280;10076;52.008;4.708;2023-02-17T06:55:03;101789.75;;;11.60;100.00
19831;BME280;10076;52.008;4.708;2023-02-17T06:57:28;101785.97;;;11.64;100.00
19831;BME280;10076;52.008;4.708;2023-02-17T06:59:54;101779.94;;;11.62;100.00
19831;BME280;10076;52.008;4.708;2023-02-17T07:02:19;101766.34;;;11.68;100.00
19831;BME280;10076;52.008;4.708;2023-02-17T07:04:45;101772.22;;;11.73;100.00
19831;BME280;10076;52.008;4.708;2023-02-17T07:07:10;101791.78;;;11.71;100.00
19831;BME280;10076;52.008;4.708;2023-02-17T07:09:36;101784.41;;;11.75;100.00
19831;BME280;10076;52.008;4.708;2023-02-17T07:12:02;101785.25;;;11.76;100.00
19831;BME280;10076;52.008;4.708;2023-02-17T07:14:28;101790.47;;;11.77;100.00
19831;BME280;10076;52.008;4.708;2023-02-17T07:16:53;101784.31;;;11.77;100.00
19831;BME280;10076;52.008;4.708;2023-02-17T07:19:19;101796.91;;;11.87;100.00
19831;BME280;10076;52.008;4.708;2023-02-17T07:21:45;101795.00;;;11.89;100.00
19831;BME280;10076;52.008;4.708;2023-02-17T07:24:10;101809.38;;;11.99;100.00
19831;BME280;10076;52.008;4.708;2023-02-17T07:26:37;101813.25;;;12.08;100.00
19831;BME280;10076;52.008;4.708;2023-02-17T07:29:03;101797.75;;;12.02;100.00
19831;BME280;10076;52.008;4.708;2023-02-17T07:31:29;101793.66;;;11.96;100.00
19831;BME280;10076;52.008;4.708;2023-02-17T07:33:54;101777.91;;;11.95;100.00
19831;BME280;10076;52.008;4.708;2023-02-17T07:36:20;101789.78;;;11.88;100.00
19831;BME280;10076;52.008;4.708;2023-02-17T07:38:45;101791.50;;;11.89;100.00
19831;BME280;10076;52.008;4.708;2023-02-17T07:41:16;101787.81;;;11.77;100.00
19831;BME280;10076;52.008;4.708;2023-02-17T07:43:41;101787.72;;;11.79;100.00
19831;BME280;10076;52.008;4.708;2023-02-17T07:46:07;101798.19;;;11.80;100.00
19831;BME280;10076;52.008;4.708;2023-02-17T07:48:33;101799.34;;;11.76;100.00
19831;BME280;10076;52.008;4.708;2023-02-17T07:51:06;101790.06;;;11.70;100.00
19831;BME280;10076;52.008;4.708;2023-02-17T07:53:32;101799.59;;;11.72;100.00
19831;BME280;10076;52.008;4.708;2023-02-17T07:55:57;101788.19;;;11.72;100.00
19831;BME280;10076;52.008;4.708;2023-02-17T07:58:23;101809.72;;;11.66;100.00
19831;BME280;10076;52.008;4.708;2023-02-17T08:00:48;101807.63;;;11.71;100.00
19831;BME280;10076;52.008;4.708;2023-02-17T08:03:13;101816.63;;;11.68;100.00
19831;BME280;10076;52.008;4.708;2023-02-17T08:05:39;101840.13;;;11.59;100.00
19831;BME280;10076;52.008;4.708;2023-02-17T08:08:06;101817.56;;;11.67;100.00
19831;BME280;10076;52.008;4.708;2023-02-17T08:10:50;101818.41;;;11.68;100.00
19831;BME280;10076;52.008;4.708;2023-02-17T08:13:34;101825.09;;;11.59;100.00
19831;BME280;10076;52.008;4.708;2023-02-17T08:15:59;101834.78;;;11.74;100.00
19831;BME280;10076;52.008;4.708;2023-02-17T08:18:24;101837.53;;;11.73;100.00
19831;BME280;10076;52.008;4.708;2023-02-17T08:20:50;101820.47;;;11.63;100.00
19831;BME280;10076;52.008;4.708;2023-02-17T08:23:15;101827.56;;;11.76;100.00
19831;BME280;10076;52.008;4.708;2023-02-17T08:25:40;101814.66;;;11.72;100.00
19831;BME280;10076;52.008;4.708;2023-02-17T08:28:06;101826.84;;;11.74;100.00
19831;BME280;10076;52.008;4.708;2023-02-17T08:30:34;101833.09;;;11.87;100.00
19831;BME280;10076;52.008;4.708;2023-02-17T08:33:00;101840.38;;;11.83;100.00
19831;BME280;10076;52.008;4.708;2023-02-17T08:35:27;101844.41;;;11.75;100.00
19831;BME280;10076;52.008;4.708;2023-02-17T08:37:52;101850.75;;;11.86;100.00
19831;BME280;10076;52.008;4.708;2023-02-17T08:40:18;101836.03;;;11.82;100.00
19831;BME280;10076;52.008;4.708;2023-02-17T08:42:43;101855.03;;;11.89;100.00
19831;BME280;10076;52.008;4.708;2023-02-17T08:45:11;101849.41;;;11.79;100.00
19831;BME280;10076;52.008;4.708;2023-02-17T08:47:36;101844.91;;;11.81;100.00
19831;BME280;10076;52.008;4.708;2023-02-17T08:50:03;101842.06;;;11.84;100.00
19831;BME280;10076;52.008;4.708;2023-02-17T08:52:29;101864.03;;;12.00;100.00
19831;BME280;10076;52.008;4.708;2023-02-17T08:54:55;101826.22;;;12.12;100.00
19831;BME280;10076;52.008;4.708;2023-02-17T08:57:20;101839.53;;;12.11;100.00
19831;BME280;10076;52.008;4.708;2023-02-17T08:59:46;101829.63;;;12.14;100.00
19831;BME280;10076;52.008;4.708;2023-02-17T09:02:12;101844.28;;;12.20;100.00
19831;BME280;10076;52.008;4.708;2023-02-17T09:04:38;101837.19;;;12.34;100.00
19831;BME280;10076;52.008;4.708;2023-02-17T09:07:03;101841.75;;;12.18;100.00
19831;BME280;10076;52.008;4.708;2023-02-17T09:09:29;101853.38;;;12.16;100.00
19831;BME280;10076;52.008;4.708;2023-02-17T09:11:56;101849.09;;;12.13;100.00
19831;BME280;10076;52.008;4.708;2023-02-17T09:14:22;101828.38;;;12.06;100.00
19831;BME280;10076;52.008;4.708;2023-02-17T09:16:49;101859.69;;;12.13;100.00
19831;BME280;10076;52.008;4.708;2023-02-17T09:19:15;101858.63;;;12.02;100.00
19831;BME280;10076;52.008;4.708;2023-02-17T09:21:40;101868.09;;;12.06;100.00
19831;BME280;10076;52.008;4.708;2023-02-17T09:24:05;101865.38;;;12.07;100.00
19831;BME280;10076;52.008;4.708;2023-02-17T09:26:31;101874.19;;;12.22;100.00
19831;BME280;10076;52.008;4.708;2023-02-17T09:28:59;101852.22;;;12.20;100.00
19831;BME280;10076;52.008;4.708;2023-02-17T09:31:25;101860.84;;;12.23;100.00
19831;BME280;10076;52.008;4.708;2023-02-17T09:33:51;101842.00;;;12.28;100.00
19831;BME280;10076;52.008;4.708;2023-02-17T09:36:29;101851.97;;;12.24;100.00
19831;BME280;10076;52.008;4.708;2023-02-17T09:38:55;101835.78;;;12.15;100.00
19831;BME280;10076;52.008;4.708;2023-02-17T09:43:49;101850.06;;;12.12;100.00
19831;BME280;10076;52.008;4.708;2023-02-17T09:46:40;101857.88;;;12.28;100.00
19831;BME280;10076;52.008;4.708;2023-02-17T09:49:13;101863.84;;;12.31;100.00
19831;BME280;10076;52.008;4.708;2023-02-17T09:56:45;101861.41;;;12.56;100.00
19831;BME280;10076;52.008;4.708;2023-02-17T09:59:17;101860.75;;;12.39;100.00
19831;BME280;10076;52.008;4.708;2023-02-17T10:01:45;101865.38;;;12.49;100.00
19831;BME280;10076;52.008;4.708;2023-02-17T10:06:42;101869.28;;;12.43;100.00
19831;BME280;10076;52.008;4.708;2023-02-17T10:09:14;101877.94;;;12.45;100.00
19831;BME280;10076;52.008;4.708;2023-02-17T10:14:21;101874.47;;;12.45;100.00
19831;BME280;10076;52.008;4.708;2023-02-17T10:17:09;101887.41;;;12.63;100.00
19831;BME280;10076;52.008;4.708;2023-02-17T10:19:43;101894.31;;;12.66;100.00
19831;BME280;10076;52.008;4.708;2023-02-17T10:22:15;101888.28;;;12.64;100.00
19831;BME280;10076;52.008;4.708;2023-02-17T10:24:41;101886.38;;;12.80;100.00
19831;BME280;10076;52.008;4.708;2023-02-17T10:27:32;101881.06;;;12.80;100.00
19831;BME280;10076;52.008;4.708;2023-02-17T10:33:37;101899.78;;;12.77;100.00
19831;BME280;10076;52.008;4.708;2023-02-17T10:36:16;101882.22;;;12.76;100.00
19831;BME280;10076;52.008;4.708;2023-02-17T10:38:50;101908.91;;;12.73;100.00
19831;BME280;10076;52.008;4.708;2023-02-17T10:41:20;101899.78;;;12.77;100.00
19831;BME280;10076;52.008;4.708;2023-02-17T10:43:47;101894.03;;;12.84;100.00
19831;BME280;10076;52.008;4.708;2023-02-17T10:46:15;101890.28;;;12.88;100.00
19831;BME280;10076;52.008;4.708;2023-02-17T10:48:48;101893.19;;;12.70;100.00
19831;BME280;10076;52.008;4.708;2023-02-17T10:51:17;101910.97;;;12.68;100.00
19831;BME280;10076;52.008;4.708;2023-02-17T10:53:47;101912.69;;;12.69;100.00
19831;BME280;10076;52.008;4.708;2023-02-17T10:59:00;101929.44;;;12.69;100.00
19831;BME280;10076;52.008;4.708;2023-02-17T11:01:28;101923.19;;;12.56;100.00
19831;BME280;10076;52.008;4.708;2023-02-17T11:04:06;101940.50;;;12.62;100.00
19831;BME280;10076;52.008;4.708;2023-02-17T11:06:36;101930.28;;;12.56;100.00
19831;BME280;10076;52.008;4.708;2023-02-17T11:09:15;101940.59;;;12.46;100.00
19831;BME280;10076;52.008;4.708;2023-02-17T11:11:49;101933.59;;;12.45;100.00
19831;BME280;10076;52.008;4.708;2023-02-17T11:14:22;101907.84;;;12.34;100.00
19831;BME280;10076;52.008;4.708;2023-02-17T11:16:55;101904.63;;;12.15;100.00
19831;BME280;10076;52.008;4.708;2023-02-17T11:19:32;101914.69;;;12.08;100.00
19831;BME280;10076;52.008;4.708;2023-02-17T11:21:59;101924.19;;;12.12;100.00
19831;BME280;10076;52.008;4.708;2023-02-17T11:24:27;101927.09;;;12.08;100.00
19831;BME280;10076;52.008;4.708;2023-02-17T11:27:03;101915.00;;;12.04;100.00
19831;BME280;10076;52.008;4.708;2023-02-17T11:29:29;101927.50;;;12.16;100.00
19831;BME280;10076;52.008;4.708;2023-02-17T11:32:10;101957.00;;;12.24;100.00
19831;BME280;10076;52.008;4.708;2023-02-17T11:34:38;101933.66;;;12.16;100.00
19831;BME280;10076;52.008;4.708;2023-02-17T11:39:44;101953.88;;;12.17;100.00
19831;BME280;10076;52.008;4.708;2023-02-17T11:42:25;101948.03;;;12.26;100.00
19831;BME280;10076;52.008;4.708;2023-02-17T11:44:53;101949.69;;;12.13;100.00
19831;BME280;10076;52.008;4.708;2023-02-17T11:50:29;101948.97;;;12.25;100.00
19831;BME280;10076;52.008;4.708;2023-02-17T11:56:12;101952.50;;;12.39;100.00
19831;BME280;10076;52.008;4.708;2023-02-17T12:01:34;101966.81;;;12.51;100.00
19831;BME280;10076;52.008;4.708;2023-02-17T12:04:24;101967.84;;;12.62;100.00
19831;BME280;10076;52.008;4.708;2023-02-17T12:07:25;101986.88;;;12.55;100.00
19831;BME280;10076;52.008;4.708;2023-02-17T12:10:53;101979.13;;;12.52;100.00
19831;BME280;10076;52.008;4.708;2023-02-17T12:20:58;101979.97;;;12.52;100.00
19831;BME280;10076;52.008;4.708;2023-02-17T12:26:26;101984.59;;;12.49;100.00
19831;BME280;10076;52.008;4.708;2023-02-17T12:36:56;101997.00;;;12.62;100.00
19831;BME280;10076;52.008;4.708;2023-02-17T12:39:48;101998.72;;;12.77;100.00
19831;BME280;10076;52.008;4.708;2023-02-17T12:42:20;102008.75;;;12.72;100.00
19831;BME280;10076;52.008;4.708;2023-02-17T12:45:03;102003.47;;;12.72;100.00
19831;BME280;10076;52.008;4.708;2023-02-17T12:48:04;102016.81;;;12.71;100.00
19831;BME280;10076;52.008;4.708;2023-02-17T12:50:39;102011.69;;;12.68;100.00
19831;BME280;10076;52.008;4.708;2023-02-17T12:53:23;102021.81;;;12.75;100.00
19831;BME280;10076;52.008;4.708;2023-02-17T12:55:56;102018.31;;;12.75;100.00
19831;BME280;10076;52.008;4.708;2023-02-17T12:58:27;102028.34;;;12.70;100.00
19831;BME280;10076;52.008;4.708;2023-02-17T13:01:02;102011.53;;;12.71;100.00
19831;BME280;10076;52.008;4.708;2023-02-17T13:03:29;102015.28;;;12.67;100.00
19831;BME280;10076;52.008;4.708;2023-02-17T13:06:01;102019.59;;;12.54;100.00
19831;BME280;10076;52.008;4.708;2023-02-17T13:08:39;102018.69;;;12.69;100.00
19831;BME280;10076;52.008;4.708;2023-02-17T13:11:10;102004.88;;;12.64;100.00
19831;BME280;10076;52.008;4.708;2023-02-17T13:13:36;102012.66;;;12.81;100.00
19831;BME280;10076;52.008;4.708;2023-02-17T13:16:11;102008.75;;;12.72;100.00
19831;BME280;10076;52.008;4.708;2023-02-17T13:18:39;102014.28;;;12.97;100.00
19831;BME280;10076;52.008;4.708;2023-02-17T13:21:25;102004.72;;;12.95;100.00
19831;BME280;10076;52.008;4.708;2023-02-17T13:24:05;102023.09;;;13.11;100.00
19831;BME280;10076;52.008;4.708;2023-02-17T13:26:32;102047.19;;;13.22;100.00
19831;BME280;10076;52.008;4.708;2023-02-17T13:32:02;102029.44;;;13.23;100.00
19831;BME280;10076;52.008;4.708;2023-02-17T13:34:32;102023.69;;;13.16;100.00
19831;BME280;10076;52.008;4.708;2023-02-17T13:36:59;102005.50;;;13.11;100.00
19831;BME280;10076;52.008;4.708;2023-02-17T13:41:51;102010.78;;;13.24;100.00
19831;BME280;10076;52.008;4.708;2023-02-17T13:47:15;102030.72;;;13.44;100.00
19831;BME280;10076;52.008;4.708;2023-02-17T13:49:51;102035.13;;;13.31;100.00
19831;BME280;10076;52.008;4.708;2023-02-17T13:52:21;102019.88;;;13.20;100.00
19831;BME280;10076;52.008;4.708;2023-02-17T13:57:37;102004.72;;;12.95;100.00
19831;BME280;10076;52.008;4.708;2023-02-17T14:00:19;102000.66;;;13.03;100.00
19831;BME280;10076;52.008;4.708;2023-02-17T14:02:57;102000.47;;;12.92;100.00
19831;BME280;10076;52.008;4.708;2023-02-17T14:05:35;101993.00;;;12.99;100.00
19831;BME280;10076;52.008;4.708;2023-02-17T14:08:07;102004.16;;;13.04;100.00
19831;BME280;10076;52.008;4.708;2023-02-17T14:10:36;101999.91;;;13.01;100.00
19831;BME280;10076;52.008;4.708;2023-02-17T14:13:01;102005.66;;;13.08;100.00
19831;BME280;10076;52.008;4.708;2023-02-17T14:15:27;101996.41;;;13.14;100.00